CheckWX is a tool to help pilots better visualize weather data.  It is not intended as a substitute for an official pre-flight weather briefing.

12:52:44 UTC

KOLM METAR
Olympia Regional Airport
Olympia, Washington, USA
Current

59 mins ago

KOLM 161154Z AUTO 00000KT 10SM OVC006 10/09 A3007 RMK AO2 SLP183 T01000094 10133 20072 53005 $
Observed
Jun-16 @ 11:54 UTC
Visibility
10 SM
Flight Rules
IFR
Cloud Levels
  • Overcast at 600' AGL
Temperature
10°C / 50°F
Dewpoint
C / 48°F
Humidity
94%
Altimeter
30.07" Hg
Pressure
1018.32 hPa
Previous

2 hours ago

KOLM 161054Z AUTO 00000KT 9SM BKN008 09/08 A3007 RMK AO2 SLP181 T00890083 $
Observed
Jun-16 @ 10:54 UTC
Visibility
9 SM
Flight Rules
IFR
Cloud Levels
  • Broken at 800' AGL
Temperature
C / 48°F
Dewpoint
C / 46°F
Humidity
94%
Altimeter
30.07" Hg
Pressure
1018.32 hPa
Previous

3 hours ago

KOLM 160954Z AUTO 00000KT 10SM CLR 09/08 A3006 RMK AO2 SLP178 T00940083 $
Observed
Jun-16 @ 09:54 UTC
Visibility
10 SM
Flight Rules
VFR
Cloud Levels
  • Clear skies
Temperature
C / 48°F
Dewpoint
C / 46°F
Humidity
94%
Altimeter
30.06" Hg
Pressure
1017.92 hPa